createdAt,value
2022-11-21T00:00:15.524Z,96.72
2022-11-21T00:01:15.713Z,96.93
2022-11-21T00:02:17.383Z,96.83
2022-11-21T00:03:16.115Z,96.61
2022-11-21T00:04:16.289Z,96.72
2022-11-21T00:05:16.474Z,96.78
2022-11-21T00:06:16.664Z,96.61
2022-11-21T00:07:16.926Z,96.57
2022-11-21T00:08:17.004Z,96.57
2022-11-21T00:09:17.201Z,96.51
2022-11-21T00:10:17.382Z,96.41
2022-11-21T00:11:17.587Z,96.51
2022-11-21T00:12:17.762Z,96.51
2022-11-21T00:13:17.950Z,96.61
2022-11-21T00:14:18.130Z,96.67
2022-11-21T00:15:18.315Z,96.51
2022-11-21T00:16:18.550Z,96.67
2022-11-21T00:17:19.260Z,96.99
2022-11-21T00:18:18.766Z,96.89
2022-11-21T00:19:18.963Z,96.78
2022-11-21T00:20:19.122Z,96.67
2022-11-21T00:21:19.317Z,96.67
2022-11-21T00:22:19.497Z,96.78
2022-11-21T00:23:19.709Z,96.47
2022-11-21T00:24:19.936Z,96.67
2022-11-21T00:25:20.013Z,97.09
2022-11-21T00:26:20.201Z,96.78
2022-11-21T00:27:20.444Z,96.47
2022-11-21T00:28:20.515Z,96.36
2022-11-21T00:29:23.685Z,96.67
2022-11-21T00:30:20.854Z,96.57
2022-11-21T00:31:21.048Z,96.57
2022-11-21T00:32:21.224Z,96.67
2022-11-21T00:33:21.443Z,96.36
2022-11-21T00:34:21.668Z,96.25
2022-11-21T00:35:21.739Z,96.04
2022-11-21T00:36:21.945Z,96.04
2022-11-21T00:37:22.136Z,96.15
2022-11-21T00:38:22.311Z,96.36
2022-11-21T00:39:23.496Z,96.47
2022-11-21T00:40:22.701Z,96.36
2022-11-21T00:41:22.900Z,96.47
2022-11-21T00:42:23.082Z,96.67
2022-11-21T00:43:23.284Z,96.78
2022-11-21T00:44:23.454Z,96.99
2022-11-21T00:45:24.595Z,96.94
2022-11-21T00:46:23.859Z,96.63
2022-11-21T00:47:24.033Z,96.63
2022-11-21T00:48:24.208Z,96.63
2022-11-21T00:49:24.392Z,96.73
2022-11-21T00:50:24.567Z,96.53
2022-11-21T00:51:24.788Z,96.31
2022-11-21T00:52:24.875Z,96.11
2022-11-21T00:53:25.072Z,95.90
2022-11-21T00:54:25.532Z,95.90
2022-11-21T00:55:25.396Z,95.79
2022-11-21T00:56:25.590Z,95.79
2022-11-21T00:57:25.774Z,96.11
2022-11-21T00:58:25.947Z,96.11
2022-11-21T00:59:26.129Z,96.53
2022-11-21T01:00:26.306Z,96.63
2022-11-21T01:01:26.600Z,96.69
2022-11-21T01:02:26.653Z,97.00
2022-11-21T01:03:26.878Z,97.11
2022-11-21T01:04:27.195Z,97.22
2022-11-21T01:05:27.147Z,97.11
2022-11-21T01:06:27.359Z,96.90
2022-11-21T01:07:27.583Z,96.90
2022-11-21T01:08:27.741Z,96.90
2022-11-21T01:09:27.956Z,96.90
2022-11-21T01:10:28.120Z,97.22
2022-11-21T01:11:28.315Z,97.42
2022-11-21T01:12:28.481Z,97.42
2022-11-21T01:13:28.671Z,97.32
2022-11-21T01:14:29.245Z,96.90
2022-11-21T01:15:28.972Z,96.80
2022-11-21T01:16:29.191Z,97.11
2022-11-21T01:17:29.261Z,97.32
2022-11-21T01:18:29.425Z,97.63
2022-11-21T01:19:29.597Z,97.85
2022-11-21T01:20:29.766Z,97.95
2022-11-21T01:21:29.963Z,97.74
2022-11-21T01:22:30.128Z,97.32
2022-11-21T01:23:30.328Z,97.42
2022-11-21T01:24:30.490Z,97.74
2022-11-21T01:25:30.665Z,97.74
2022-11-21T01:26:30.868Z,97.32
2022-11-21T01:27:31.043Z,97.26
2022-11-21T01:28:31.206Z,97.36
2022-11-21T01:29:31.390Z,97.78
2022-11-21T01:30:31.553Z,97.85
2022-11-21T01:31:31.752Z,97.58
2022-11-21T01:32:31.922Z,97.68
2022-11-21T01:33:32.118Z,97.99
2022-11-21T01:34:32.274Z,97.89
2022-11-21T01:35:32.460Z,97.78
2022-11-21T01:36:32.661Z,97.99
2022-11-21T01:37:32.830Z,98.10
2022-11-21T01:38:32.998Z,98.05
2022-11-21T01:39:33.167Z,97.85
2022-11-21T01:40:33.336Z,98.05
2022-11-21T01:41:33.570Z,98.26
2022-11-21T01:42:33.616Z,98.26
2022-11-21T01:43:33.792Z,98.05
2022-11-21T01:44:33.972Z,97.95
2022-11-21T01:45:34.147Z,97.95
2022-11-21T01:46:34.340Z,97.91
2022-11-21T01:47:34.516Z,97.91
2022-11-21T01:48:34.680Z,97.59
2022-11-21T01:49:34.849Z,97.22
2022-11-21T01:50:35.064Z,97.22
2022-11-21T01:51:35.153Z,97.32
2022-11-21T01:52:35.321Z,97.32
2022-11-21T01:53:35.487Z,97.22
2022-11-21T01:54:35.658Z,97.11
2022-11-21T01:55:35.839Z,97.32
2022-11-21T01:56:36.017Z,97.22
2022-11-21T01:57:36.191Z,97.53
2022-11-21T01:58:37.132Z,97.42
2022-11-21T01:59:36.520Z,97.42
2022-11-21T02:00:36.782Z,97.53
2022-11-21T02:01:36.860Z,97.74
2022-11-21T02:02:37.130Z,97.95
2022-11-21T02:03:37.188Z,98.05
2022-11-21T02:04:37.360Z,97.85
2022-11-21T02:05:37.524Z,97.63
2022-11-21T02:06:37.711Z,97.47
2022-11-21T02:07:37.918Z,97.58
2022-11-21T02:08:38.067Z,97.58
2022-11-21T02:09:38.235Z,97.89
2022-11-21T02:10:38.424Z,98.10
2022-11-21T02:11:38.701Z,98.10
2022-11-21T02:12:38.774Z,98.21
2022-11-21T02:13:38.946Z,98.31
2022-11-21T02:14:39.105Z,98.41
2022-11-21T02:15:39.284Z,98.52
2022-11-21T02:16:39.465Z,98.62
2022-11-21T02:17:39.632Z,98.72
2022-11-21T02:18:39.803Z,98.62
2022-11-21T02:19:40.028Z,98.89
2022-11-21T02:20:40.086Z,98.62
2022-11-21T02:21:40.293Z,98.62
2022-11-21T02:22:40.371Z,98.62
2022-11-21T02:23:40.808Z,98.72
2022-11-21T02:24:40.671Z,98.62
2022-11-21T02:25:40.833Z,98.62
2022-11-21T02:26:41.021Z,98.52
2022-11-21T02:27:41.211Z,98.52
2022-11-21T02:28:41.366Z,98.72
2022-11-21T02:29:41.565Z,98.79
2022-11-21T02:30:41.751Z,98.89
2022-11-21T02:31:42.354Z,98.89
2022-11-21T02:32:42.078Z,98.79
2022-11-21T02:33:42.270Z,98.79
2022-11-21T02:34:42.449Z,98.58
2022-11-21T02:35:42.627Z,98.58
2022-11-21T02:36:42.808Z,98.47
2022-11-21T02:37:42.961Z,98.58
2022-11-21T02:38:43.132Z,98.79
2022-11-21T02:39:43.343Z,98.58
2022-11-21T02:40:43.505Z,98.58
2022-11-21T02:41:43.703Z,98.58
2022-11-21T02:42:45.263Z,98.68
2022-11-21T02:43:44.064Z,98.58
2022-11-21T02:44:44.254Z,98.47
2022-11-21T02:45:44.433Z,98.47
2022-11-21T02:46:44.634Z,98.58
2022-11-21T02:47:44.822Z,98.64
2022-11-21T02:48:44.994Z,98.22
2022-11-21T02:49:45.175Z,98.05
2022-11-21T02:50:45.349Z,98.16
2022-11-21T02:51:45.537Z,98.26
2022-11-21T02:52:45.706Z,98.16
2022-11-21T02:53:45.871Z,98.16
2022-11-21T02:54:46.042Z,98.26
2022-11-21T02:55:46.226Z,98.37
2022-11-21T02:56:46.422Z,98.16
2022-11-21T02:57:46.584Z,98.16
2022-11-21T02:58:46.772Z,98.26
2022-11-21T02:59:46.939Z,98.32
2022-11-21T03:00:47.171Z,98.43
2022-11-21T03:01:47.278Z,98.32
2022-11-21T03:02:47.462Z,98.11
2022-11-21T03:03:47.631Z,98.22
2022-11-21T03:04:47.797Z,98.32
2022-11-21T03:05:47.967Z,98.11
2022-11-21T03:06:48.178Z,97.91
2022-11-21T03:07:48.428Z,98.11
2022-11-21T03:08:48.500Z,98.11
2022-11-21T03:09:48.668Z,98.22
2022-11-21T03:10:48.835Z,98.32
2022-11-21T03:11:49.004Z,98.11
2022-11-21T03:12:49.173Z,97.91
2022-11-21T03:13:49.332Z,97.91
2022-11-21T03:14:49.538Z,98.01
2022-11-21T03:15:49.753Z,97.80
2022-11-21T03:16:49.832Z,97.42
2022-11-21T03:17:49.992Z,97.53
2022-11-21T03:18:50.177Z,97.63
2022-11-21T03:19:50.358Z,97.85
2022-11-21T03:20:50.525Z,97.74
2022-11-21T03:21:50.704Z,97.95
2022-11-21T03:22:50.865Z,98.05
2022-11-21T03:23:58.091Z,98.22
2022-11-21T03:24:51.219Z,98.32
2022-11-21T03:25:51.379Z,98.32
2022-11-21T03:26:51.569Z,98.32
2022-11-21T03:27:51.728Z,98.32
2022-11-21T03:28:51.902Z,98.11
2022-11-21T03:29:52.059Z,98.01
2022-11-21T03:30:52.234Z,97.91
2022-11-21T03:31:52.410Z,97.69
2022-11-21T03:32:52.591Z,97.80
2022-11-21T03:33:52.808Z,97.91
2022-11-21T03:34:52.871Z,98.01
2022-11-21T03:35:53.018Z,98.11
2022-11-21T03:36:53.195Z,98.22
2022-11-21T03:37:53.356Z,98.28
2022-11-21T03:38:53.528Z,98.22
2022-11-21T03:39:53.694Z,98.22
2022-11-21T03:40:53.878Z,98.11
2022-11-21T03:41:54.066Z,97.91
2022-11-21T03:42:54.234Z,97.91
2022-11-21T03:43:54.396Z,97.91
2022-11-21T03:44:54.576Z,97.91
2022-11-21T03:45:54.742Z,97.91
2022-11-21T03:46:54.950Z,98.01
2022-11-21T03:47:55.000Z,98.01
2022-11-21T03:48:55.189Z,97.95
2022-11-21T03:49:55.354Z,97.95
2022-11-21T03:50:55.530Z,98.16
2022-11-21T03:51:55.721Z,98.26
2022-11-21T03:52:55.893Z,98.47
2022-11-21T03:53:56.060Z,98.58
2022-11-21T03:54:56.229Z,98.37
2022-11-21T03:55:56.403Z,98.58
2022-11-21T03:56:56.596Z,98.68
2022-11-21T03:57:56.768Z,98.58
2022-11-21T03:58:56.942Z,98.68
2022-11-21T03:59:57.108Z,98.79
2022-11-21T04:00:57.332Z,98.89
2022-11-21T04:01:57.549Z,99.21
2022-11-21T04:02:57.603Z,99.21
2022-11-21T04:03:57.766Z,99.00
2022-11-21T04:04:57.944Z,98.89
2022-11-21T04:05:58.105Z,98.72
2022-11-21T04:06:58.304Z,98.72
2022-11-21T04:07:58.458Z,98.62
2022-11-21T04:08:58.629Z,98.72
2022-11-21T04:09:58.792Z,98.83
2022-11-21T04:10:58.956Z,99.04
2022-11-21T04:11:59.162Z,99.04
2022-11-21T04:12:59.330Z,99.04
2022-11-21T04:13:59.499Z,99.15
2022-11-21T04:14:59.668Z,99.35
2022-11-21T04:15:59.833Z,99.35
2022-11-21T04:17:00.025Z,99.35
2022-11-21T04:18:00.192Z,99.35
2022-11-21T04:19:00.375Z,99.46
2022-11-21T04:20:00.550Z,99.46
2022-11-21T04:21:00.733Z,99.46
2022-11-21T04:22:00.907Z,99.35
2022-11-21T04:23:01.089Z,99.25
2022-11-21T04:24:01.255Z,99.25
2022-11-21T04:25:01.431Z,99.15
2022-11-21T04:26:01.596Z,99.15
2022-11-21T04:27:01.780Z,99.25
2022-11-21T04:28:01.941Z,99.35
2022-11-21T04:29:02.116Z,99.46
2022-11-21T04:30:02.276Z,99.63
2022-11-21T04:31:05.738Z,99.73
2022-11-21T04:32:03.565Z,99.63
2022-11-21T04:33:02.736Z,99.52
2022-11-21T04:34:02.907Z,99.52
2022-11-21T04:35:03.077Z,99.52
2022-11-21T04:36:03.258Z,99.63
2022-11-21T04:37:06.370Z,99.63
2022-11-21T04:38:04.561Z,99.52
2022-11-21T04:39:03.723Z,99.41
2022-11-21T04:40:03.892Z,99.52
2022-11-21T04:41:04.071Z,99.41
2022-11-21T04:42:04.245Z,99.10
2022-11-21T04:43:04.433Z,98.89
2022-11-21T04:44:04.600Z,98.72
2022-11-21T04:45:04.771Z,98.72
2022-11-21T04:46:04.934Z,98.83
2022-11-21T04:47:05.835Z,98.94
2022-11-21T04:48:05.309Z,99.04
2022-11-21T04:49:05.487Z,99.25
2022-11-21T04:50:05.647Z,99.35
2022-11-21T04:51:05.836Z,99.57
2022-11-21T04:52:05.990Z,99.73
2022-11-21T04:53:06.189Z,99.84
2022-11-21T04:54:06.348Z,99.94
2022-11-21T04:55:06.526Z,99.94
2022-11-21T04:56:06.694Z,99.99
2022-11-21T04:57:06.865Z,99.94
2022-11-21T04:58:07.058Z,99.84
2022-11-21T04:59:07.237Z,99.63
2022-11-21T05:00:07.423Z,99.63
2022-11-21T05:01:07.707Z,99.73
2022-11-21T05:02:07.768Z,99.94
2022-11-21T05:03:07.974Z,99.79
2022-11-21T05:04:08.142Z,99.63
2022-11-21T05:05:08.335Z,99.52
2022-11-21T05:06:08.522Z,99.41
2022-11-21T05:07:08.736Z,99.52
2022-11-21T05:08:08.801Z,99.48
2022-11-21T05:09:08.974Z,99.58
2022-11-21T05:10:09.145Z,99.58
2022-11-21T05:11:09.300Z,99.58
2022-11-21T05:12:09.470Z,99.48
2022-11-21T05:13:09.652Z,99.48
2022-11-21T05:14:09.809Z,99.48
2022-11-21T05:15:09.976Z,99.48
2022-11-21T05:16:10.150Z,99.48
2022-11-21T05:17:10.328Z,99.58
2022-11-21T05:18:10.509Z,99.58
2022-11-21T05:19:10.674Z,99.54
2022-11-21T05:20:10.835Z,99.54
2022-11-21T05:21:10.997Z,99.54
2022-11-21T05:22:11.160Z,99.43
2022-11-21T05:23:11.327Z,99.43
2022-11-21T05:24:11.520Z,99.43
2022-11-21T05:25:11.706Z,99.43
2022-11-21T05:26:11.862Z,99.54
2022-11-21T05:27:12.028Z,99.54
2022-11-21T05:28:12.235Z,99.54
2022-11-21T05:29:12.295Z,99.43
2022-11-21T05:30:12.453Z,99.54
2022-11-21T05:31:12.624Z,99.54
2022-11-21T05:32:12.784Z,99.54
2022-11-21T05:33:12.963Z,99.49
2022-11-21T05:34:13.122Z,99.38
2022-11-21T05:35:13.292Z,99.28
2022-11-21T05:36:13.450Z,99.18
2022-11-21T05:37:13.623Z,99.28
2022-11-21T05:38:13.776Z,99.07
2022-11-21T05:39:13.959Z,98.97
2022-11-21T05:40:14.149Z,98.86
2022-11-21T05:41:14.310Z,98.75
2022-11-21T05:42:14.487Z,98.65
2022-11-21T05:43:14.658Z,98.55
2022-11-21T05:44:14.820Z,98.44
2022-11-21T05:45:14.987Z,98.44
2022-11-21T05:46:15.157Z,98.34
2022-11-21T05:47:15.332Z,98.44
2022-11-21T05:48:15.521Z,98.44
2022-11-21T05:49:15.691Z,98.44
2022-11-21T05:50:15.867Z,98.44
2022-11-21T05:51:16.051Z,98.44
2022-11-21T05:52:16.214Z,98.34
2022-11-21T05:53:16.410Z,98.34
2022-11-21T05:54:16.576Z,98.34
2022-11-21T05:55:16.744Z,98.55
2022-11-21T05:56:16.894Z,98.55
2022-11-21T05:57:17.078Z,98.61
2022-11-21T05:58:17.263Z,98.50
2022-11-21T05:59:17.454Z,98.44
2022-11-21T06:00:17.637Z,98.34
2022-11-21T06:01:17.828Z,98.34
2022-11-21T06:02:17.982Z,98.34
2022-11-21T06:03:18.228Z,98.19
2022-11-21T06:04:18.324Z,98.08
2022-11-21T06:05:18.537Z,97.98
2022-11-21T06:06:23.704Z,98.02
2022-11-21T06:07:19.746Z,97.81
2022-11-21T06:08:18.897Z,97.71
2022-11-21T06:09:19.086Z,97.71
2022-11-21T06:10:19.279Z,97.71
2022-11-21T06:11:19.361Z,97.71
2022-11-21T06:12:25.108Z,97.61
2022-11-21T06:13:20.669Z,97.81
2022-11-21T06:14:19.837Z,97.71
2022-11-21T06:15:20.191Z,97.81
2022-11-21T06:16:20.159Z,97.92
2022-11-21T06:17:20.355Z,98.13
2022-11-21T06:18:20.524Z,98.08
2022-11-21T06:19:20.710Z,98.08
2022-11-21T06:20:20.906Z,98.08
2022-11-21T06:21:21.091Z,98.08
2022-11-21T06:22:21.255Z,98.08
2022-11-21T06:23:21.432Z,98.19
2022-11-21T06:24:22.452Z,98.19
2022-11-21T06:25:21.723Z,98.29
2022-11-21T06:26:21.915Z,98.19
2022-11-21T06:27:22.081Z,98.19
2022-11-21T06:28:22.233Z,98.19
2022-11-21T06:29:22.432Z,98.29
2022-11-21T06:30:22.610Z,98.29
2022-11-21T06:31:22.772Z,98.19
2022-11-21T06:32:23.006Z,98.29
2022-11-21T06:33:23.071Z,98.29
2022-11-21T06:34:23.246Z,98.29
2022-11-21T06:35:23.430Z,98.29
2022-11-21T06:36:23.602Z,98.39
2022-11-21T06:37:23.791Z,98.39
2022-11-21T06:38:23.943Z,98.39
2022-11-21T06:39:24.112Z,98.39
2022-11-21T06:40:24.315Z,98.19
2022-11-21T06:41:24.498Z,98.39
2022-11-21T06:42:24.658Z,98.77
2022-11-21T06:43:24.836Z,98.77
2022-11-21T06:44:25.005Z,98.67
2022-11-21T06:45:25.195Z,98.77
2022-11-21T06:46:25.356Z,98.77
2022-11-21T06:47:25.532Z,98.56
2022-11-21T06:48:25.697Z,98.35
2022-11-21T06:49:25.870Z,98.25
2022-11-21T06:50:26.048Z,98.14
2022-11-21T06:51:26.228Z,98.04
2022-11-21T06:52:26.392Z,98.14
2022-11-21T06:53:26.566Z,98.14
2022-11-21T06:54:26.737Z,98.04
2022-11-21T06:55:26.941Z,98.14
2022-11-21T06:56:26.991Z,98.04
2022-11-21T06:57:27.151Z,98.04
2022-11-21T06:58:27.316Z,97.94
2022-11-21T06:59:27.485Z,98.04
2022-11-21T07:00:27.665Z,98.04
2022-11-21T07:01:27.878Z,97.94
2022-11-21T07:02:27.933Z,97.83
2022-11-21T07:03:28.107Z,97.72
2022-11-21T07:04:28.523Z,97.72
2022-11-21T07:05:28.383Z,97.72
2022-11-21T07:06:28.559Z,97.72
2022-11-21T07:07:28.753Z,97.72
2022-11-21T07:08:28.900Z,97.72
2022-11-21T07:09:33.786Z,97.72
2022-11-21T07:10:30.272Z,97.72
2022-11-21T07:11:29.330Z,97.83
2022-11-21T07:12:29.507Z,97.83
2022-11-21T07:13:29.670Z,97.83
2022-11-21T07:14:29.846Z,97.94
2022-11-21T07:15:30.006Z,97.89
2022-11-21T07:16:30.193Z,97.89
2022-11-21T07:17:30.342Z,97.89
2022-11-21T07:18:30.510Z,97.78
2022-11-21T07:19:30.890Z,97.78
2022-11-21T07:20:30.855Z,97.58
2022-11-21T07:21:31.034Z,97.47
2022-11-21T07:22:31.203Z,97.37
2022-11-21T07:23:31.362Z,97.37
2022-11-21T07:24:31.520Z,97.37
2022-11-21T07:25:36.441Z,97.37
2022-11-21T07:26:32.794Z,97.37
2022-11-21T07:27:31.953Z,97.47
2022-11-21T07:28:32.122Z,97.68
2022-11-21T07:29:32.285Z,97.47
2022-11-21T07:30:32.436Z,97.58
2022-11-21T07:31:32.621Z,97.37
2022-11-21T07:32:32.804Z,97.20
2022-11-21T07:33:32.995Z,97.27
2022-11-21T07:34:33.168Z,97.20
2022-11-21T07:35:33.333Z,97.20
2022-11-21T07:36:33.519Z,97.10
2022-11-21T07:37:33.686Z,97.27
2022-11-21T07:38:33.857Z,97.37
2022-11-21T07:39:34.008Z,97.47
2022-11-21T07:40:34.177Z,97.58
2022-11-21T07:41:34.346Z,97.78
2022-11-21T07:42:34.522Z,97.78
2022-11-21T07:43:34.677Z,97.78
2022-11-21T07:44:34.847Z,97.58
2022-11-21T07:45:35.005Z,97.27
2022-11-21T07:46:35.189Z,97.37
2022-11-21T07:47:35.340Z,97.27
2022-11-21T07:48:35.514Z,97.37
2022-11-21T07:49:35.674Z,97.37
2022-11-21T07:50:35.830Z,97.37
2022-11-21T07:51:35.997Z,97.37
2022-11-21T07:52:36.167Z,97.31
2022-11-21T07:53:36.324Z,97.37
2022-11-21T07:54:36.492Z,97.37
2022-11-21T07:55:40.575Z,97.27
2022-11-21T07:56:36.812Z,97.05
2022-11-21T07:57:36.961Z,96.84
2022-11-21T07:58:37.131Z,96.74
2022-11-21T07:59:37.291Z,96.53
2022-11-21T08:00:37.460Z,96.74
2022-11-21T08:01:40.223Z,96.91
2022-11-21T08:02:38.747Z,97.22
2022-11-21T08:03:37.897Z,97.01
2022-11-21T08:04:38.060Z,96.49
2022-11-21T08:05:38.217Z,96.28
2022-11-21T08:06:38.398Z,96.38
2022-11-21T08:07:38.613Z,96.17
2022-11-21T08:08:38.761Z,96.07
2022-11-21T08:09:39.919Z,96.28
2022-11-21T08:10:39.032Z,96.38
2022-11-21T08:11:39.188Z,96.28
2022-11-21T08:12:39.347Z,96.07
2022-11-21T08:13:39.503Z,95.86
2022-11-21T08:14:39.649Z,95.97
2022-11-21T08:15:39.808Z,95.76
2022-11-21T08:16:39.966Z,95.59
2022-11-21T08:17:40.110Z,96.01
2022-11-21T08:18:40.283Z,96.01
2022-11-21T08:19:40.438Z,96.16
2022-11-21T08:20:40.605Z,96.58
2022-11-21T08:21:40.768Z,96.89
2022-11-21T08:22:40.920Z,97.00
2022-11-21T08:23:41.076Z,96.78
2022-11-21T08:24:41.245Z,96.68
2022-11-21T08:25:41.411Z,96.83
2022-11-21T08:26:41.592Z,97.04
2022-11-21T08:27:41.746Z,97.14
2022-11-21T08:28:41.911Z,96.94
2022-11-21T08:29:42.073Z,97.14
2022-11-21T08:30:42.284Z,97.08
2022-11-21T08:31:42.336Z,97.50
2022-11-21T08:32:42.528Z,97.71
2022-11-21T08:33:42.712Z,97.88
2022-11-21T08:34:42.873Z,97.61
2022-11-21T08:35:43.030Z,97.19
2022-11-21T08:36:43.200Z,97.19
2022-11-21T08:37:43.360Z,96.98
2022-11-21T08:38:43.549Z,97.23
2022-11-21T08:39:43.707Z,97.55
2022-11-21T08:40:43.878Z,97.96
2022-11-21T08:41:44.063Z,98.13
2022-11-21T08:42:44.225Z,98.13
2022-11-21T08:43:44.384Z,98.02
2022-11-21T08:44:44.564Z,97.81
2022-11-21T08:45:44.724Z,97.71
2022-11-21T08:46:44.918Z,97.50
2022-11-21T08:47:45.088Z,97.29
2022-11-21T08:48:45.256Z,97.35
2022-11-21T08:49:45.425Z,97.04
2022-11-21T08:50:45.588Z,97.04
2022-11-21T08:51:45.753Z,96.83
2022-11-21T08:52:45.923Z,96.77
2022-11-21T08:53:46.083Z,96.66
2022-11-21T08:54:46.252Z,96.77
2022-11-21T08:55:46.413Z,96.88
2022-11-21T08:56:46.597Z,96.56
2022-11-21T08:57:46.755Z,96.56
2022-11-21T08:58:46.923Z,96.71
2022-11-21T08:59:47.077Z,96.98
2022-11-21T09:00:47.233Z,97.08
2022-11-21T09:01:47.456Z,96.92
2022-11-21T09:02:47.551Z,97.13
2022-11-21T09:03:47.709Z,97.02
2022-11-21T09:04:47.871Z,97.02
2022-11-21T09:05:48.019Z,97.02
2022-11-21T09:06:48.192Z,97.23
2022-11-21T09:07:48.506Z,97.34
2022-11-21T09:08:48.512Z,97.65
2022-11-21T09:09:48.661Z,97.65
2022-11-21T09:10:48.830Z,97.86
2022-11-21T09:11:48.992Z,97.86
2022-11-21T09:12:49.157Z,97.86
2022-11-21T09:13:49.326Z,97.96
2022-11-21T09:14:49.593Z,97.96
2022-11-21T09:15:49.606Z,97.96
2022-11-21T09:16:49.821Z,97.96
2022-11-21T09:17:49.871Z,98.07
2022-11-21T09:18:50.044Z,97.96
2022-11-21T09:19:50.205Z,97.86
2022-11-21T09:20:50.391Z,97.65
2022-11-21T09:21:50.545Z,97.44
2022-11-21T09:22:50.713Z,97.55
2022-11-21T09:23:50.881Z,97.65
2022-11-21T09:24:57.998Z,97.44
2022-11-21T09:25:51.122Z,97.69
2022-11-21T09:26:51.309Z,97.96
2022-11-21T09:27:51.493Z,97.80
2022-11-21T09:28:51.661Z,97.91
2022-11-21T09:29:54.217Z,97.49
2022-11-21T09:30:52.025Z,97.49
2022-11-21T09:31:52.199Z,97.69
2022-11-21T09:32:52.378Z,97.38
2022-11-21T09:33:55.125Z,97.06
2022-11-21T09:34:52.636Z,96.90
2022-11-21T09:35:52.785Z,97.22
2022-11-21T09:36:52.968Z,97.63
2022-11-21T09:37:53.131Z,97.85
2022-11-21T09:38:53.293Z,98.05
2022-11-21T09:39:53.459Z,97.95
2022-11-21T09:40:53.637Z,98.05
2022-11-21T09:41:53.814Z,98.11
2022-11-21T09:42:53.985Z,98.11
2022-11-21T09:43:55.874Z,98.11
2022-11-21T09:44:54.318Z,98.01
2022-11-21T09:45:54.471Z,97.91
2022-11-21T09:46:54.659Z,97.69
2022-11-21T09:47:54.829Z,97.55
2022-11-21T09:48:54.988Z,97.34
2022-11-21T09:49:55.154Z,96.86
2022-11-21T09:50:55.340Z,96.75
2022-11-21T09:51:55.503Z,97.06
2022-11-21T09:52:55.697Z,96.80
2022-11-21T09:53:55.838Z,96.80
2022-11-21T09:54:56.008Z,97.11
2022-11-21T09:55:56.167Z,97.42
2022-11-21T09:56:56.361Z,96.80
2022-11-21T09:57:56.515Z,96.89
2022-11-21T09:58:56.691Z,97.20
2022-11-21T09:59:56.837Z,97.83
2022-11-21T10:00:58.525Z,98.35
2022-11-21T10:01:57.155Z,98.14
2022-11-21T10:02:57.332Z,98.56
2022-11-21T10:03:57.490Z,98.56
2022-11-21T10:04:57.654Z,98.88
2022-11-21T10:05:57.812Z,99.08
2022-11-21T10:06:58.005Z,99.40
2022-11-21T10:07:58.162Z,99.40
2022-11-21T10:08:58.331Z,99.19
2022-11-21T10:09:58.521Z,99.30
2022-11-21T10:10:58.704Z,99.19
2022-11-21T10:11:58.882Z,99.40
2022-11-21T10:12:59.060Z,99.46
2022-11-21T10:13:59.224Z,99.04
2022-11-21T10:14:59.408Z,99.04
2022-11-21T10:15:59.581Z,99.15
2022-11-21T10:16:59.794Z,98.72
2022-11-21T10:17:59.867Z,98.52
2022-11-21T10:19:00.030Z,98.58
2022-11-21T10:20:00.205Z,98.79
2022-11-21T10:21:00.382Z,98.58
2022-11-21T10:22:00.562Z,97.95
2022-11-21T10:23:00.738Z,97.85
2022-11-21T10:24:00.906Z,97.42
2022-11-21T10:25:01.086Z,97.53
2022-11-21T10:26:01.252Z,97.85
2022-11-21T10:27:01.431Z,97.95
2022-11-21T10:28:01.615Z,97.69
2022-11-21T10:29:01.884Z,97.69
2022-11-21T10:30:01.954Z,97.38
2022-11-21T10:31:02.125Z,97.17
2022-11-21T10:32:02.320Z,96.90
2022-11-21T10:33:02.490Z,97.11
2022-11-21T10:34:02.653Z,96.90
2022-11-21T10:35:02.841Z,97.06
2022-11-21T10:36:03.010Z,96.86
2022-11-21T10:37:06.358Z,96.96
2022-11-21T10:38:04.321Z,96.75
2022-11-21T10:39:03.491Z,96.55
2022-11-21T10:40:03.666Z,96.44
2022-11-21T10:41:03.839Z,96.12
2022-11-21T10:42:04.047Z,96.33
2022-11-21T10:43:04.238Z,96.39
2022-11-21T10:44:04.395Z,96.29
2022-11-21T10:45:04.563Z,96.29
2022-11-21T10:46:04.752Z,96.08
2022-11-21T10:47:04.930Z,96.19
2022-11-21T10:48:08.161Z,95.98
2022-11-21T10:49:05.290Z,95.87
2022-11-21T10:50:05.451Z,95.93
2022-11-21T10:51:05.605Z,95.72
2022-11-21T10:52:05.768Z,95.51
2022-11-21T10:53:05.945Z,95.09
2022-11-21T10:54:08.114Z,94.99
2022-11-21T10:55:06.289Z,94.99
2022-11-21T10:56:06.437Z,94.82
2022-11-21T10:57:06.614Z,94.72
2022-11-21T10:58:06.764Z,94.87
2022-11-21T10:59:06.943Z,94.81
2022-11-21T11:00:07.093Z,95.01
2022-11-21T11:01:07.343Z,95.43
2022-11-21T11:02:07.405Z,95.33
2022-11-21T11:03:07.574Z,95.54
2022-11-21T11:04:26.856Z,95.86
2022-11-21T11:05:08.850Z,96.00
2022-11-21T11:06:08.002Z,96.27
2022-11-21T11:07:08.227Z,96.42
2022-11-21T11:08:08.283Z,96.37
2022-11-21T11:09:08.437Z,96.31
2022-11-21T11:10:08.612Z,96.31
2022-11-21T11:11:08.794Z,96.53
2022-11-21T11:12:08.979Z,96.73
2022-11-21T11:13:30.698Z,96.90
2022-11-21T11:14:10.284Z,96.80
2022-11-21T11:15:09.462Z,96.90
2022-11-21T11:16:09.623Z,96.86
2022-11-21T11:17:09.837Z,96.55
2022-11-21T11:18:09.960Z,96.23
2022-11-21T11:19:10.085Z,96.23
2022-11-21T11:20:10.252Z,95.92
2022-11-21T11:21:10.429Z,95.81
2022-11-21T11:22:10.696Z,95.81
2022-11-21T11:23:10.744Z,95.92
2022-11-21T11:24:10.952Z,95.60
2022-11-21T11:25:11.083Z,95.64
2022-11-21T11:26:11.253Z,95.75
2022-11-21T11:27:11.415Z,95.75
2022-11-21T11:28:11.594Z,95.92
2022-11-21T11:29:11.761Z,95.92
2022-11-21T11:30:11.928Z,96.12
2022-11-21T11:31:12.084Z,95.92
2022-11-21T11:32:15.273Z,95.92
2022-11-21T11:33:13.382Z,95.60
2022-11-21T11:34:12.547Z,95.29
2022-11-21T11:35:12.706Z,95.25
2022-11-21T11:36:12.876Z,95.14
2022-11-21T11:37:13.041Z,94.78
2022-11-21T11:38:13.214Z,93.84
2022-11-21T11:39:13.371Z,93.42
2022-11-21T11:40:13.563Z,93.36
2022-11-21T11:41:13.700Z,93.52
2022-11-21T11:42:16.749Z,93.42
2022-11-21T11:43:13.997Z,93.32
2022-11-21T11:44:14.168Z,93.11
2022-11-21T11:45:14.330Z,92.79
2022-11-21T11:46:14.515Z,93.01
2022-11-21T11:47:14.689Z,92.90
2022-11-21T11:48:14.856Z,92.06
2022-11-21T11:49:21.070Z,92.31
2022-11-21T11:50:16.103Z,92.77
2022-11-21T11:51:15.251Z,92.98
2022-11-21T11:52:15.470Z,93.24
2022-11-21T11:53:15.505Z,94.18
2022-11-21T11:54:15.664Z,94.76
2022-11-21T11:55:15.815Z,94.97
2022-11-21T11:56:15.979Z,95.03
2022-11-21T11:57:16.148Z,94.93
2022-11-21T11:58:16.314Z,94.62
2022-11-21T11:59:16.484Z,94.46
2022-11-21T12:00:16.644Z,94.05
2022-11-21T12:01:16.785Z,93.95
2022-11-21T12:02:17.005Z,93.32
2022-11-21T12:03:17.067Z,93.42
2022-11-21T12:04:17.222Z,93.84
2022-11-21T12:05:17.372Z,93.78
2022-11-21T12:06:17.532Z,93.88
2022-11-21T12:08:12.750Z,93.99
2022-11-21T12:08:41.372Z,94.30
2022-11-21T12:09:18.954Z,94.09
2022-11-21T12:10:18.017Z,94.51
2022-11-21T12:11:21.089Z,94.13
2022-11-21T12:12:19.276Z,94.34
2022-11-21T12:13:18.434Z,94.97
2022-11-21T12:14:18.584Z,95.29
2022-11-21T12:15:18.735Z,95.07
2022-11-21T12:16:18.903Z,94.97
2022-11-21T12:17:19.047Z,95.39
2022-11-21T12:18:19.235Z,95.39
2022-11-21T12:19:19.391Z,95.75
2022-11-21T12:20:19.577Z,96.37
2022-11-21T12:21:19.740Z,96.55
2022-11-21T12:22:19.958Z,96.48
2022-11-21T12:23:20.037Z,96.37
2022-11-21T12:24:20.206Z,96.59
2022-11-21T12:25:20.383Z,96.80
2022-11-21T12:26:20.558Z,96.90
2022-11-21T12:27:20.724Z,97.22
2022-11-21T12:28:20.972Z,96.80
2022-11-21T12:29:20.981Z,97.00
2022-11-21T12:30:21.142Z,97.00
2022-11-21T12:31:21.327Z,96.86
2022-11-21T12:32:21.502Z,96.75
2022-11-21T12:33:21.669Z,96.75
2022-11-21T12:34:21.841Z,96.65
2022-11-21T12:35:21.998Z,96.33
2022-11-21T12:36:22.160Z,95.81
2022-11-21T12:37:22.333Z,95.96
2022-11-21T12:38:22.622Z,96.27
2022-11-21T12:39:22.689Z,96.48
2022-11-21T12:40:22.898Z,96.59
2022-11-21T12:41:23.030Z,96.94
2022-11-21T12:42:23.222Z,97.32
2022-11-21T12:43:23.398Z,97.63
2022-11-21T12:44:23.582Z,97.47
2022-11-21T12:45:23.750Z,97.58
2022-11-21T12:46:23.924Z,97.68
2022-11-21T12:47:24.116Z,97.89
2022-11-21T12:48:24.304Z,97.95
2022-11-21T12:49:24.476Z,97.99
2022-11-21T12:50:24.666Z,98.10
2022-11-21T12:51:24.827Z,98.47
2022-11-21T12:52:25.010Z,98.37
2022-11-21T12:53:25.173Z,97.85
2022-11-21T12:54:25.354Z,97.85